Bei Facebook empfehlenBei Twitter postenGoogle plusPinterest

Das Wetter im Erzgebirge am 20.04.2015

Wetter und Klima am 20.04.2015 Holzhau im Erzgebirge (630m ü.NN)
Letzte gemessene Temperatur und Uhrzeit der Messung23:45:00 Uhr2.40 °C
Temperatur (Maximum / Höchstwert) und Uhrzeit der Messung17:15:00 Uhr14.40 °C
Temperatur (Minimum / Tiefstwert) und Uhrzeit der Messung06:15:00-2.80 °C
Errechneter Absolutwert der Temperaturschwankungen zwischen Tmin und Tmax des Tages17.20 K
Errechnete Tagesmitteltemperatur6.21771 °C
Gesamt - Niederschlag des Tages (in flüssiger Form)0.00 Liter / m²
Luftdruck (Maximum / Höchstwert) und Zeitpunkt der Messung23:30:00 Uhr1023.00 hPa
Luftdruck (Minimum / Tiefstwert) und Zeitpunkt der Messung06:00:00 Uhr1019.60 hPa
Errechneter Absolutwert der Luftdruckschwankungen des Tages3.40 hPa
Höchste gemessene Windgeschwindigkeit und Uhrzeit der Messung11:15:00 Uhr14.76 km/h
Errechnete Windhäufigkeit in Relation zu den Messwerten des Tages16.66667 %
Niedrigste Windkühle (Windchill) und Zeitpunkt der Messung06:15:00 Uhr-2.80 °C
Taupunkt (Maximum / Höchstwert) und Uhrzeit der Messung17:15:00 Uhr4.40 °C
Taupunkt (Minimum / Tiefstwert) und Uhrzeit der Messung06:15:00-4.70 °C
Anzahl der automatisch eingelesenen Messwerte 96

Detaillierte Wetter- und Klima- Messwerte für den 20.04.2015 in Holzhau im Erzgebirge (630m ü.NN)
ZeitTemperaturLuftdruckRel. LuftfeuchteWindWindrichtungWindchillTaupunktNiederschlag l/m²
23:45:002.40 °C1022.80 hPa81.00 %-0.50 °C 
23:30:002.80 °C1023.00 hPa80.00 %-0.30 °C 
23:15:003.00 °C1022.70 hPa79.00 %-0.30 °C 
23:00:003.40 °C1022.70 hPa78.00 %-0.10 °C 
22:45:003.90 °C1022.60 hPa77.00 %0.20 °C 
22:30:004.30 °C1022.50 hPa75.00 %0.30 °C 
22:15:004.90 °C1022.50 hPa73.00 %0.50 °C 
22:00:005.50 °C1022.30 hPa71.00 %0.70 °C 
21:45:005.90 °C1022.10 hPa69.00 %0.70 °C 
21:30:006.40 °C1022.00 hPa68.00 %0.90 °C 
21:15:006.90 °C1021.90 hPa66.00 %1.00 °C 
21:00:007.60 °C1021.90 hPa64.00 %1.20 °C 
20:45:008.60 °C1021.60 hPa61.00 %1.50 °C 
20:30:009.30 °C1021.30 hPa59.00 %1.70 °C 
20:15:009.90 °C1021.10 hPa57.00 %1.80 °C 
20:00:0010.50 °C1021.10 hPa56.00 %2.10 °C 
19:45:0010.90 °C1021.00 hPa55.00 %2.20 °C 
19:30:0011.50 °C1021.00 hPa53.00 %2.30 °C 
19:15:0011.90 °C1020.40 hPa52.00 %2.88 km/hNNW11.90 °C2.40 °C 
19:00:0012.50 °C1020.40 hPa50.00 %2.40 °C 
18:45:0013.10 °C1020.30 hPa48.00 %2.40 °C 
18:30:0013.40 °C1020.60 hPa47.00 %2.30 °C 
18:15:0013.70 °C1020.80 hPa47.00 %2.60 °C 
18:00:0013.60 °C1020.60 hPa47.00 %2.50 °C 
17:45:0013.80 °C1020.40 hPa51.00 %7.56 km/hNW13.50 °C3.90 °C 
17:30:0014.10 °C1020.50 hPa51.00 %4.32 km/hW14.10 °C4.10 °C 
17:15:0014.40 °C1020.20 hPa51.00 %5.76 km/hWNW14.60 °C4.40 °C 
17:00:0013.90 °C1020.30 hPa52.00 %10.80 km/hW13.20 °C4.20 °C 
16:45:0013.80 °C1020.60 hPa52.00 %4.10 °C 
16:30:0014.30 °C1020.60 hPa50.00 %4.00 °C 
16:15:0014.30 °C1020.40 hPa51.00 %11.52 km/hWNW13.60 °C4.30 °C 
16:00:0014.10 °C1020.70 hPa51.00 %4.10 °C 
15:45:0013.90 °C1020.50 hPa51.00 %5.40 km/hW14.10 °C3.90 °C 
15:30:0014.20 °C1020.50 hPa50.00 %6.84 km/hN14.10 °C3.90 °C 
15:15:0014.30 °C1020.50 hPa51.00 %4.30 °C 
15:00:0014.10 °C1020.60 hPa51.00 %4.10 °C 
14:45:0013.80 °C1021.00 hPa51.00 %3.96 km/hWNW13.80 °C3.90 °C 
14:30:0013.60 °C1020.90 hPa52.00 %3.90 °C 
14:15:0013.40 °C1020.80 hPa51.00 %3.50 °C 
14:00:0013.60 °C1020.90 hPa53.00 %4.20 °C 
13:45:0013.20 °C1021.00 hPa51.00 %3.30 °C 
13:30:0012.90 °C1020.80 hPa54.00 %1.80 km/hNW12.90 °C3.80 °C 
13:15:0012.80 °C1020.90 hPa55.00 %6.12 km/hNNW12.70 °C4.00 °C 
13:00:0012.40 °C1021.10 hPa57.00 %4.10 °C 
12:45:0011.90 °C1021.10 hPa57.00 %3.70 °C 
12:30:0011.80 °C1021.30 hPa56.00 %3.30 °C 
12:15:0011.80 °C1021.40 hPa57.00 %9.36 km/hWNW10.90 °C3.60 °C 
12:00:0011.50 °C1021.30 hPa58.00 %3.50 °C 
11:45:0011.00 °C1021.30 hPa58.00 %3.10 °C 
11:30:0010.30 °C1021.40 hPa61.00 %3.10 °C 
11:15:009.90 °C1021.20 hPa60.00 %14.76 km/hNW7.80 °C2.50 °C 
11:00:009.80 °C1021.30 hPa61.00 %2.60 °C 
10:45:009.50 °C1021.10 hPa65.00 %12.96 km/hWNW7.60 °C3.30 °C 
10:30:009.40 °C1021.00 hPa65.00 %10.80 km/hWNW7.80 °C3.20 °C 
10:15:008.80 °C1020.80 hPa67.00 %3.00 °C 
10:00:008.30 °C1020.70 hPa66.00 %7.92 km/hWNW7.00 °C2.30 °C 
09:45:008.20 °C1020.60 hPa70.00 %3.10 °C 
09:30:008.10 °C1020.60 hPa72.00 %3.40 °C 
09:15:007.60 °C1020.40 hPa75.00 %3.50 °C 
09:00:006.40 °C1020.30 hPa76.00 %2.50 °C 
08:45:005.60 °C1020.40 hPa78.00 %2.10 °C 
08:30:005.10 °C1020.20 hPa80.00 %1.90 °C 
08:15:004.30 °C1020.20 hPa85.00 %2.00 °C 
08:00:003.10 °C1020.00 hPa87.00 %1.20 °C 
07:45:001.60 °C1020.10 hPa88.00 %-0.20 °C 
07:30:000.10 °C1020.00 hPa90.00 %-1.30 °C 
07:15:00-1.60 °C1020.10 hPa90.00 %-3.20 °C 
07:00:00-2.50 °C1019.80 hPa89.00 %-4.20 °C 
06:45:00-2.70 °C1019.80 hPa88.00 %-4.60 °C 
06:30:00-2.70 °C1019.70 hPa88.00 %-4.60 °C 
06:15:00-2.80 °C1019.70 hPa88.00 %-4.70 °C 
06:00:00-2.70 °C1019.60 hPa88.00 %-4.60 °C 
05:45:00-2.60 °C1019.60 hPa88.00 %-4.50 °C 
05:30:00-2.40 °C1019.70 hPa88.00 %-4.30 °C 
05:15:00-2.20 °C1019.90 hPa88.00 %-4.10 °C 
05:00:00-2.10 °C1019.90 hPa87.00 %-4.20 °C 
04:45:00-2.10 °C1019.90 hPa87.00 %-4.20 °C 
04:30:00-1.90 °C1019.90 hPa87.00 %-4.00 °C 
04:15:00-1.70 °C1020.00 hPa86.00 %-4.00 °C 
04:00:00-1.50 °C1020.10 hPa86.00 %-3.80 °C 
03:45:00-1.10 °C1019.90 hPa86.00 %-3.40 °C 
03:30:00-0.90 °C1020.10 hPa87.00 %-3.00 °C 
03:15:00-1.00 °C1020.20 hPa87.00 %-3.10 °C 
03:00:00-1.10 °C1020.40 hPa87.00 %-3.20 °C 
02:45:00-1.30 °C1020.30 hPa87.00 %-3.40 °C 
02:30:00-1.50 °C1020.30 hPa86.00 %-3.80 °C 
02:15:00-1.60 °C1020.30 hPa86.00 %-3.90 °C 
02:00:00-1.60 °C1020.40 hPa85.00 %-4.00 °C 
01:45:00-1.40 °C1020.80 hPa85.00 %-3.80 °C 
01:30:00-1.40 °C1020.50 hPa85.00 %-3.80 °C 
01:15:00-1.10 °C1020.60 hPa84.00 %-3.70 °C 
01:00:00-0.90 °C1020.50 hPa84.00 %-3.50 °C 
00:45:00-0.70 °C1020.60 hPa84.00 %-3.30 °C 
00:30:00-0.40 °C1020.40 hPa83.00 %-3.20 °C 
00:15:00-0.30 °C1020.30 hPa83.00 %-3.10 °C 
00:00:00-0.20 °C1020.30 hPa82.00 %-3.20 °C 

Permanenter Link zu dieser Seite: Wetter im Erzgebirge am 20.04.2015
Performance-Info: Die Erstellung der Seite / Statistik(en) / Tabelle(n) erforderte 5 Datenbankserver-Abfrage(n) und dauerte 96 Millisekunden. (Dieser Messwert ist von der Gesamt-Auslastung des Servers abhängig.)
Erzgebirge - Wetter | Erzgebirge - Wetter (Mobilgeräte) | Komplette Klimadatenbank